Time;durP1;ratioP1;P1;durP2;ratioP2;P2;SDS_P1;SDS_P2;PMS_P1;PMS_P2;Temp;Humidity;BMP_temperature;BMP_pressure;BME280_temperature;BME280_humidity;BME280_pressure;Samples;Min_cycle;Max_cycle;Signal;HPM_P1;HPM_P2
2021/06/02 00:00:41;;;;;;;1.77;0.70;;;22.50;41.60;;;;;;5095808;28;20027;-65
2021/06/02 00:03:09;;;;;;;2.30;1.02;;;22.50;41.60;;;;;;5095785;28;20020;-66
2021/06/02 00:05:34;;;;;;;1.30;0.77;;;22.50;41.60;;;;;;5095894;28;20032;-65
2021/06/02 00:08:00;;;;;;;2.60;1.10;;;22.40;41.70;;;;;;5095799;28;20085;-66
2021/06/02 00:10:26;;;;;;;1.75;0.98;;;22.40;41.70;;;;;;5095634;28;20024;-66
2021/06/02 00:12:53;;;;;;;2.60;0.98;;;22.40;41.70;;;;;;5095714;28;20040;-66
2021/06/02 00:15:19;;;;;;;2.10;0.73;;;22.40;41.70;;;;;;5095387;28;20024;-65
2021/06/02 00:17:45;;;;;;;1.70;1.00;;;22.40;41.70;;;;;;5095568;28;20171;-65
2021/06/02 00:20:11;;;;;;;2.13;0.90;;;22.40;41.80;;;;;;5096060;28;20486;-65
2021/06/02 00:22:37;;;;;;;2.08;0.95;;;22.40;41.80;;;;;;5095375;28;20024;-65
2021/06/02 00:25:05;;;;;;;1.30;0.80;;;22.40;41.80;;;;;;5095642;28;20028;-66
2021/06/02 00:27:32;;;;;;;3.00;1.08;;;22.30;41.80;;;;;;5095423;28;20016;-65
2021/06/02 00:30:01;;;;;;;1.75;0.80;;;22.30;41.80;;;;;;5094918;28;20031;-65
2021/06/02 00:32:27;;;;;;;2.38;1.00;;;22.30;41.90;;;;;;5095248;28;20031;-65
2021/06/02 00:34:53;;;;;;;2.00;1.00;;;22.30;41.90;;;;;;5095178;28;20032;-65
2021/06/02 00:37:19;;;;;;;2.55;0.90;;;22.30;41.90;;;;;;5095200;28;20099;-65
2021/06/02 00:39:47;;;;;;;1.60;0.90;;;22.30;41.90;;;;;;5095089;28;20028;-65
2021/06/02 00:42:13;;;;;;;1.35;0.88;;;22.30;41.90;;;;;;5093719;28;20069;-66
2021/06/02 00:44:38;;;;;;;2.15;0.90;;;22.30;41.90;;;;;;5094881;28;20020;-65
2021/06/02 00:47:04;;;;;;;2.28;0.90;;;22.20;42.00;;;;;;5094900;28;20085;-65
2021/06/02 00:49:29;;;;;;;3.08;1.10;;;22.20;42.00;;;;;;5094803;28;20030;-65
2021/06/02 00:52:06;;;;;;;2.75;1.10;;;22.20;42.00;;;;;;5094792;28;20031;-65
2021/06/02 00:54:35;;;;;;;1.52;0.80;;;22.20;42.00;;;;;;5094618;28;20081;-65
2021/06/02 00:57:13;;;;;;;1.85;0.95;;;22.20;42.00;;;;;;5094667;28;20095;-65
2021/06/02 00:59:50;;;;;;;1.45;0.85;;;22.20;42.00;;;;;;5094754;28;20432;-65
2021/06/02 01:02:17;;;;;;;2.83;1.08;;;22.20;42.10;;;;;;5094571;28;20033;-65
2021/06/02 01:04:44;;;;;;;2.70;1.17;;;22.20;42.10;;;;;;5094521;28;20464;-65
2021/06/02 01:07:12;;;;;;;1.20;0.65;;;22.20;42.10;;;;;;5094488;28;20060;-64
2021/06/02 01:09:44;;;;;;;2.45;1.02;;;22.10;42.10;;;;;;5093456;28;20028;-63
2021/06/02 01:12:14;;;;;;;2.38;1.13;;;22.10;42.10;;;;;;5094593;28;20046;-65
2021/06/02 01:14:41;;;;;;;2.00;1.20;;;22.10;42.20;;;;;;5094544;28;20032;-65
2021/06/02 01:17:08;;;;;;;3.85;1.13;;;22.10;42.20;;;;;;5094491;28;20083;-65
2021/06/02 01:19:34;;;;;;;2.08;1.00;;;22.10;42.20;;;;;;5094257;28;20074;-65
2021/06/02 01:22:00;;;;;;;3.17;0.98;;;22.10;42.20;;;;;;5094337;28;20060;-65
2021/06/02 01:24:31;;;;;;;2.20;1.10;;;22.10;42.20;;;;;;5094056;28;20054;-66
2021/06/02 01:26:59;;;;;;;2.10;1.17;;;22.10;42.30;;;;;;5094458;28;20035;-65
2021/06/02 01:29:26;;;;;;;4.32;1.10;;;22.10;42.30;;;;;;5094269;28;20026;-65
2021/06/02 01:32:10;;;;;;;1.92;0.90;;;22.00;42.30;;;;;;5094136;28;20039;-66
2021/06/02 01:34:50;;;;;;;2.17;1.13;;;22.00;42.30;;;;;;5093853;28;20032;-65
2021/06/02 01:37:36;;;;;;;2.25;1.13;;;22.00;42.40;;;;;;5093946;28;20103;-65
2021/06/02 01:40:32;;;;;;;3.70;1.10;;;22.00;42.40;;;;;;5093946;28;20640;-65
2021/06/02 01:43:20;;;;;;;2.00;1.00;;;22.00;42.40;;;;;;5093811;28;20097;-66
2021/06/02 01:46:21;;;;;;;1.75;1.10;;;22.00;42.50;;;;;;5093803;28;20020;-65
2021/06/02 01:49:12;;;;;;;3.38;1.15;;;22.00;42.50;;;;;;5093975;28;20024;-66
2021/06/02 01:51:51;;;;;;;2.90;1.35;;;22.00;42.50;;;;;;5093822;28;20032;-65
2021/06/02 01:54:46;;;;;;;2.90;1.23;;;22.00;42.50;;;;;;5093284;28;20310;-63
2021/06/02 01:57:30;;;;;;;2.75;1.38;;;21.90;42.60;;;;;;5093511;28;20024;-64
2021/06/02 02:00:28;;;;;;;3.03;1.30;;;21.90;42.60;;;;;;5093599;28;20043;-64
2021/06/02 02:03:30;;;;;;;1.55;1.10;;;21.90;42.60;;;;;;5093546;28;20028;-64
2021/06/02 02:06:06;;;;;;;3.65;1.20;;;21.90;42.60;;;;;;5093433;28;20059;-64
2021/06/02 02:08:35;;;;;;;2.10;1.17;;;21.90;42.60;;;;;;5093568;28;20499;-65
2021/06/02 02:11:18;;;;;;;2.78;1.10;;;21.90;42.60;;;;;;5093445;28;20028;-64
2021/06/02 02:13:55;;;;;;;2.88;1.10;;;21.90;42.60;;;;;;5093460;28;20031;-66
2021/06/02 02:16:55;;;;;;;3.13;1.17;;;21.90;42.60;;;;;;5093319;28;20051;-65
2021/06/02 02:19:44;;;;;;;2.35;1.20;;;21.80;42.70;;;;;;5093468;28;20035;-65
2021/06/02 02:22:26;;;;;;;1.75;0.90;;;21.80;42.70;;;;;;5093099;28;20028;-65
2021/06/02 02:25:06;;;;;;;1.83;1.00;;;21.80;42.70;;;;;;5092109;28;20457;-65
2021/06/02 02:27:39;;;;;;;2.25;1.00;;;21.80;42.70;;;;;;5093457;28;20383;-65
2021/06/02 02:30:07;;;;;;;2.72;1.15;;;21.80;42.70;;;;;;5093406;28;20376;-65
2021/06/02 02:32:51;;;;;;;2.72;1.38;;;21.80;42.80;;;;;;5093183;28;20032;-65
2021/06/02 02:35:28;;;;;;;2.53;1.20;;;21.80;42.80;;;;;;5093699;28;20110;-65
2021/06/02 02:38:18;;;;;;;2.55;1.25;;;21.80;42.80;;;;;;5093332;28;20024;-66
2021/06/02 02:41:32;;;;;;;3.42;1.13;;;21.70;42.80;;;;;;5093109;28;20418;-66
2021/06/02 02:44:05;;;;;;;3.80;2.15;;;21.70;42.80;;;;;;5093113;28;20380;-65
2021/06/02 02:46:30;;;;;;;2.53;1.30;;;21.70;42.90;;;;;;5093328;28;20024;-65
2021/06/02 02:49:40;;;;;;;2.72;1.30;;;21.70;42.90;;;;;;5092990;28;20076;-65
2021/06/02 02:52:19;;;;;;;2.42;1.20;;;21.70;42.90;;;;;;5058949;28;20119;-66
2021/06/02 02:55:09;;;;;;;2.53;1.20;;;21.70;42.90;;;;;;5093034;28;20043;-66
2021/06/02 02:58:14;;;;;;;2.80;1.30;;;21.70;42.90;;;;;;5093025;28;20028;-65
2021/06/02 03:01:02;;;;;;;2.40;1.20;;;21.60;43.00;;;;;;5093178;28;20035;-65
2021/06/02 03:03:41;;;;;;;2.95;1.10;;;21.70;43.00;;;;;;5095628;28;20111;-66
2021/06/02 03:06:31;;;;;;;2.53;1.20;;;21.60;43.00;;;;;;5093346;28;20028;-64
2021/06/02 03:09:02;;;;;;;3.28;1.35;;;21.60;43.00;;;;;;5092772;28;20480;-64
2021/06/02 03:11:43;;;;;;;2.15;1.17;;;21.60;43.00;;;;;;5092973;28;20028;-64
2021/06/02 03:14:22;;;;;;;2.40;1.20;;;21.60;43.00;;;;;;5092735;28;20032;-65
2021/06/02 03:17:26;;;;;;;3.33;1.30;;;21.50;43.10;;;;;;5092970;28;20021;-65
2021/06/02 03:20:24;;;;;;;3.40;1.58;;;21.60;43.10;;;;;;5092749;28;20503;-65
2021/06/02 03:23:13;;;;;;;3.22;1.38;;;21.50;43.10;;;;;;5093052;28;20127;-66
2021/06/02 03:25:45;;;;;;;2.35;1.00;;;21.50;43.10;;;;;;5092867;28;20106;-65
2021/06/02 03:28:41;;;;;;;2.85;1.40;;;21.50;43.10;;;;;;5092930;28;20038;-65
2021/06/02 03:31:49;;;;;;;3.67;1.48;;;21.50;43.10;;;;;;5092921;28;20021;-65
2021/06/02 03:34:25;;;;;;;2.75;1.38;;;21.50;43.20;;;;;;5106606;28;20075;-66
2021/06/02 03:37:06;;;;;;;3.78;1.40;;;21.50;43.20;;;;;;5096386;28;20024;-65
2021/06/02 03:40:21;;;;;;;2.80;1.33;;;21.50;43.30;;;;;;5096121;28;20066;-65
2021/06/02 03:43:05;;;;;;;3.20;1.38;;;21.50;43.30;;;;;;5033921;28;20577;-66
2021/06/02 03:46:08;;;;;;;2.13;1.27;;;21.50;43.30;;;;;;5033957;28;20018;-65
2021/06/02 03:49:00;;;;;;;3.35;1.50;;;21.50;43.30;;;;;;5091222;28;20267;-65
2021/06/02 03:51:51;;;;;;;3.53;1.45;;;21.50;43.30;;;;;;5094832;28;20020;-65
2021/06/02 03:54:38;;;;;;;2.65;1.50;;;21.40;43.30;;;;;;5095872;28;20436;-66
2021/06/02 03:57:13;;;;;;;3.65;1.63;;;21.40;43.30;;;;;;5095991;28;20063;-66
2021/06/02 03:59:51;;;;;;;3.05;1.48;;;21.40;43.40;;;;;;5095882;28;20033;-64
2021/06/02 04:02:24;;;;;;;4.00;1.50;;;21.40;43.40;;;;;;5095971;28;20031;-66
2021/06/02 04:05:00;;;;;;;3.38;1.60;;;21.40;43.30;;;;;;5095809;28;20039;-65
2021/06/02 04:08:01;;;;;;;3.40;1.63;;;21.40;43.40;;;;;;5094472;28;20020;-65
2021/06/02 04:10:45;;;;;;;3.63;1.58;;;21.40;43.40;;;;;;5064124;28;20035;-65
2021/06/02 04:13:40;;;;;;;3.33;1.80;;;21.40;43.40;;;;;;5095518;28;20122;-66
2021/06/02 04:16:12;;;;;;;3.55;1.58;;;21.40;43.50;;;;;;5095790;28;20444;-66
2021/06/02 04:18:40;;;;;;;3.00;1.40;;;21.40;43.50;;;;;;5095596;28;20355;-66
2021/06/02 04:21:06;;;;;;;2.33;1.38;;;21.40;43.40;;;;;;5095156;28;20495;-63
2021/06/02 04:23:36;;;;;;;3.42;1.70;;;21.30;43.50;;;;;;5095165;28;20052;-67
2021/06/02 04:26:04;;;;;;;2.67;1.30;;;21.30;43.50;;;;;;5095264;28;20058;-64
2021/06/02 04:28:35;;;;;;;4.18;1.77;;;21.30;43.50;;;;;;5094925;28;20081;-65
2021/06/02 04:31:10;;;;;;;3.03;1.52;;;21.30;43.60;;;;;;5095492;28;20046;-65
2021/06/02 04:33:37;;;;;;;3.08;1.58;;;21.30;43.50;;;;;;5094896;28;20036;-65
2021/06/02 04:36:05;;;;;;;3.85;1.65;;;21.30;43.50;;;;;;5094950;28;20027;-65
2021/06/02 04:38:32;;;;;;;4.60;1.90;;;21.30;43.50;;;;;;5095578;28;20016;-65
2021/06/02 04:41:03;;;;;;;3.55;1.90;;;21.30;43.60;;;;;;5095781;28;20062;-65
2021/06/02 04:43:33;;;;;;;3.08;1.52;;;21.30;43.60;;;;;;5095591;28;20023;-65
2021/06/02 04:46:00;;;;;;;3.55;1.48;;;21.30;43.50;;;;;;5095100;28;20116;-66
2021/06/02 04:48:27;;;;;;;2.88;1.48;;;21.30;43.50;;;;;;5094706;28;20020;-65
2021/06/02 04:51:28;;;;;;;3.53;1.40;;;21.30;43.60;;;;;;5094640;28;20016;-65
2021/06/02 04:54:00;;;;;;;3.60;1.70;;;21.30;43.60;;;;;;5094760;28;20028;-66
2021/06/02 04:57:00;;;;;;;3.22;1.60;;;21.30;43.60;;;;;;5094457;28;20630;-66
2021/06/02 04:59:48;;;;;;;3.45;1.58;;;21.20;43.60;;;;;;5094971;28;20112;-66
2021/06/02 05:02:45;;;;;;;4.32;1.83;;;21.20;43.60;;;;;;5094631;28;20016;-66
2021/06/02 05:05:36;;;;;;;3.60;1.45;;;21.20;43.60;;;;;;5094591;28;20044;-65
2021/06/02 05:08:35;;;;;;;3.88;2.15;;;21.20;43.60;;;;;;5094936;28;20055;-66
2021/06/02 05:11:29;;;;;;;2.90;1.45;;;21.20;43.60;;;;;;5092974;28;20028;-65
2021/06/02 05:14:22;;;;;;;2.67;1.40;;;21.20;43.70;;;;;;5094399;28;20035;-65
2021/06/02 05:17:24;;;;;;;3.17;1.35;;;21.20;43.60;;;;;;5094407;28;20047;-66
2021/06/02 05:20:19;;;;;;;3.47;1.60;;;21.20;43.50;;;;;;5094417;28;20062;-65
2021/06/02 05:23:23;;;;;;;4.05;1.70;;;21.20;43.60;;;;;;5094036;28;20039;-65
2021/06/02 05:26:03;;;;;;;3.58;1.80;;;21.20;43.60;;;;;;5094178;28;20051;-66
2021/06/02 05:29:06;;;;;;;3.33;1.58;;;21.20;43.60;;;;;;5094226;28;20031;-66
2021/06/02 05:31:58;;;;;;;2.67;1.30;;;21.20;43.60;;;;;;5092771;28;20107;-65
2021/06/02 05:34:48;;;;;;;3.60;1.65;;;21.20;43.60;;;;;;5094162;28;20071;-66
2021/06/02 05:37:53;;;;;;;3.70;1.80;;;21.20;43.60;;;;;;5094182;28;20028;-65
2021/06/02 05:40:48;;;;;;;4.32;1.60;;;21.20;43.60;;;;;;5093788;28;20016;-65
2021/06/02 05:43:32;;;;;;;3.13;1.50;;;21.20;43.60;;;;;;5094052;28;20031;-65
2021/06/02 05:46:18;;;;;;;3.55;1.75;;;21.20;43.60;;;;;;5094230;28;20028;-66
2021/06/02 05:48:58;;;;;;;3.15;1.70;;;21.20;43.60;;;;;;5094487;28;20028;-65
2021/06/02 05:51:51;;;;;;;3.22;1.55;;;21.20;43.60;;;;;;5098649;28;20024;-69
2021/06/02 05:54:44;;;;;;;5.03;1.60;;;21.20;43.60;;;;;;5104538;28;20101;-67
2021/06/02 05:57:47;;;;;;;3.13;1.70;;;21.30;43.50;;;;;;5103819;28;20069;-68
2021/06/02 06:00:45;;;;;;;3.22;1.60;;;21.30;43.50;;;;;;5104092;28;20028;-66
2021/06/02 06:03:48;;;;;;;3.80;1.98;;;21.30;43.50;;;;;;5106251;28;20422;-66
2021/06/02 06:06:22;;;;;;;4.50;1.95;;;21.30;43.40;;;;;;5103029;28;20024;-65
2021/06/02 06:09:05;;;;;;;5.07;1.88;;;21.30;43.40;;;;;;5103118;28;20054;-66
2021/06/02 06:11:59;;;;;;;3.47;1.67;;;21.30;43.40;;;;;;5094190;28;20016;-65
2021/06/02 06:14:33;;;;;;;3.20;1.60;;;21.40;43.30;;;;;;5093741;28;20043;-66
2021/06/02 06:17:17;;;;;;;4.80;1.90;;;21.30;43.30;;;;;;5094027;28;20062;-66
2021/06/02 06:20:07;;;;;;;3.45;1.55;;;21.40;43.30;;;;;;5093687;28;20494;-66
2021/06/02 06:22:59;;;;;;;3.13;1.55;;;21.30;43.30;;;;;;5093403;28;20529;-65
2021/06/02 06:25:45;;;;;;;5.40;1.88;;;21.40;43.20;;;;;;5093571;28;20476;-66
2021/06/02 06:28:36;;;;;;;3.85;1.83;;;21.40;43.20;;;;;;5092546;28;20075;-63
2021/06/02 06:31:10;;;;;;;2.88;1.35;;;21.40;43.10;;;;;;5069465;28;20404;-65
2021/06/02 06:33:37;;;;;;;4.17;1.87;;;21.40;43.10;;;;;;5093187;28;20381;-65
2021/06/02 06:36:05;;;;;;;3.58;1.90;;;21.50;43.10;;;;;;5093308;28;20664;-65
2021/06/02 06:38:54;;;;;;;5.20;1.80;;;21.50;43.00;;;;;;5093952;28;20486;-65
2021/06/02 06:41:23;;;;;;;2.70;1.33;;;21.50;43.00;;;;;;5092936;28;20020;-66
2021/06/02 06:43:51;;;;;;;3.63;1.60;;;21.50;43.00;;;;;;5093318;28;20114;-66
2021/06/02 06:46:21;;;;;;;3.10;1.55;;;21.50;43.00;;;;;;5093193;28;20460;-64
2021/06/02 06:48:48;;;;;;;4.53;1.52;;;21.50;42.90;;;;;;5093024;28;20024;-64
2021/06/02 06:51:16;;;;;;;2.95;1.50;;;21.50;43.00;;;;;;5093153;28;20016;-65
2021/06/02 06:53:42;;;;;;;3.72;1.80;;;21.50;43.00;;;;;;5093628;28;20028;-64
2021/06/02 06:56:12;;;;;;;3.60;1.83;;;21.50;42.90;;;;;;5093185;28;20084;-64
2021/06/02 06:58:38;;;;;;;2.53;1.30;;;21.50;42.90;;;;;;5092924;28;20454;-65
2021/06/02 07:01:04;;;;;;;3.05;1.63;;;21.50;42.80;;;;;;5092876;28;20035;-65
2021/06/02 07:03:30;;;;;;;2.47;1.30;;;21.60;42.80;;;;;;5092980;28;20035;-65
2021/06/02 07:05:59;;;;;;;3.20;1.50;;;21.60;42.80;;;;;;5093442;28;20027;-65
2021/06/02 07:08:25;;;;;;;3.50;1.58;;;21.60;42.80;;;;;;5093300;28;20422;-65
2021/06/02 07:10:51;;;;;;;2.83;1.45;;;21.60;42.80;;;;;;5096964;28;20024;-65
2021/06/02 07:13:20;;;;;;;3.78;1.67;;;21.60;42.80;;;;;;5096727;28;20024;-64
2021/06/02 07:15:46;;;;;;;3.42;1.70;;;21.70;42.80;;;;;;5096905;28;20056;-64
2021/06/02 07:18:17;;;;;;;3.30;1.70;;;21.70;42.70;;;;;;5096693;28;20425;-65
2021/06/02 07:20:43;;;;;;;3.50;1.48;;;21.70;42.70;;;;;;5096440;28;20031;-64
2021/06/02 07:23:09;;;;;;;3.92;1.40;;;21.70;42.70;;;;;;5096579;28;20169;-66
2021/06/02 07:25:35;;;;;;;3.83;1.60;;;21.70;42.60;;;;;;5096289;28;20054;-65
2021/06/02 07:28:07;;;;;;;3.67;1.50;;;21.80;42.60;;;;;;5096174;28;20020;-64
2021/06/02 07:30:32;;;;;;;3.03;1.45;;;21.70;42.60;;;;;;5096288;28;20024;-65
2021/06/02 07:32:58;;;;;;;3.33;1.42;;;21.70;42.60;;;;;;5096385;28;20086;-65
2021/06/02 07:35:25;;;;;;;3.45;1.65;;;21.80;42.60;;;;;;5096420;28;20012;-65
2021/06/02 07:37:50;;;;;;;3.58;1.63;;;21.80;42.60;;;;;;5096210;28;20418;-64
2021/06/02 07:40:16;;;;;;;3.78;1.52;;;21.80;42.60;;;;;;5096539;28;20016;-65
2021/06/02 07:42:42;;;;;;;2.47;1.05;;;21.80;42.60;;;;;;5096365;28;20353;-65
2021/06/02 07:45:08;;;;;;;3.88;1.95;;;21.80;42.50;;;;;;5096290;28;20020;-65
2021/06/02 07:47:34;;;;;;;3.90;1.60;;;21.80;42.60;;;;;;5095670;28;20032;-65
2021/06/02 07:49:59;;;;;;;4.72;1.60;;;21.80;42.60;;;;;;5095988;28;20020;-64
2021/06/02 07:52:26;;;;;;;4.57;1.52;;;21.80;42.60;;;;;;5096127;28;20134;-64
2021/06/02 07:54:52;;;;;;;3.17;1.50;;;21.80;42.60;;;;;;5095860;28;20028;-65
2021/06/02 07:57:17;;;;;;;2.97;1.50;;;21.90;42.50;;;;;;5095710;28;20387;-64
2021/06/02 07:59:43;;;;;;;3.05;1.13;;;21.90;42.50;;;;;;5094622;28;20039;-64
2021/06/02 08:02:09;;;;;;;3.40;1.40;;;21.80;42.50;;;;;;5095683;28;20023;-65
2021/06/02 08:04:34;;;;;;;2.15;1.23;;;21.90;42.50;;;;;;5093415;28;20028;-64
2021/06/02 08:07:01;;;;;;;2.20;1.30;;;21.90;42.40;;;;;;5091703;28;20118;-64
2021/06/02 08:09:27;;;;;;;3.42;1.55;;;21.90;42.50;;;;;;5091926;28;20107;-65
2021/06/02 08:11:53;;;;;;;4.05;1.65;;;21.90;42.50;;;;;;5086863;28;20094;-65
2021/06/02 08:14:19;;;;;;;4.82;1.73;;;21.90;42.50;;;;;;5089937;28;20032;-65
2021/06/02 08:16:44;;;;;;;3.90;1.58;;;21.90;42.60;;;;;;5089683;28;20050;-65
2021/06/02 08:19:10;;;;;;;3.17;1.58;;;21.90;42.60;;;;;;5090186;28;20028;-65
2021/06/02 08:21:38;;;;;;;2.67;1.42;;;21.90;42.60;;;;;;5094090;28;20027;-64
2021/06/02 08:24:04;;;;;;;2.80;1.30;;;21.90;42.60;;;;;;5084447;28;20057;-64
2021/06/02 08:26:37;;;;;;;2.75;1.33;;;21.90;42.60;;;;;;5103850;28;20038;-64
2021/06/02 08:29:03;;;;;;;2.70;1.50;;;21.90;42.60;;;;;;5086894;28;20467;-65
2021/06/02 08:31:29;;;;;;;2.08;1.17;;;22.00;42.60;;;;;;5095429;28;20774;-66
2021/06/02 08:33:54;;;;;;;4.78;1.70;;;22.00;42.70;;;;;;5097668;28;20076;-67
2021/06/02 08:36:20;;;;;;;4.68;1.67;;;22.00;42.60;;;;;;5093374;28;20068;-67
2021/06/02 08:38:45;;;;;;;2.38;1.30;;;21.90;42.70;;;;;;5092446;28;20091;-67
2021/06/02 08:41:12;;;;;;;3.10;1.70;;;21.90;42.80;;;;;;5093737;28;20028;-67
2021/06/02 08:43:38;;;;;;;1.90;1.00;;;22.00;42.80;;;;;;5084172;28;20039;-66
2021/06/02 08:46:04;;;;;;;2.67;1.45;;;22.00;42.90;;;;;;5082746;28;20068;-66
2021/06/02 08:48:29;;;;;;;2.65;1.25;;;22.00;42.90;;;;;;5094029;28;20032;-66
2021/06/02 08:50:55;;;;;;;2.60;1.40;;;22.00;43.00;;;;;;5084564;28;20445;-67
2021/06/02 08:53:21;;;;;;;3.53;1.42;;;22.00;43.10;;;;;;5092364;28;20463;-67
2021/06/02 08:55:47;;;;;;;3.75;1.40;;;22.00;43.10;;;;;;5081169;28;20021;-69
2021/06/02 08:58:20;;;;;;;4.15;1.50;;;22.00;43.20;;;;;;5078731;28;20051;-68
2021/06/02 09:00:47;;;;;;;2.50;1.20;;;22.00;43.20;;;;;;5085121;28;20024;-68
2021/06/02 09:03:13;;;;;;;3.67;1.60;;;22.00;43.10;;;;;;5078630;28;20056;-68
2021/06/02 09:05:39;;;;;;;3.67;1.65;;;22.00;43.20;;;;;;5094574;28;20027;-69
2021/06/02 09:08:07;;;;;;;2.60;1.50;;;22.00;43.10;;;;;;5072927;28;20036;-68
2021/06/02 09:10:38;;;;;;;2.75;1.38;;;22.00;43.10;;;;;;5073722;28;20029;-68
2021/06/02 09:13:13;;;;;;;2.60;1.30;;;22.00;43.10;;;;;;5073896;28;20477;-68
2021/06/02 09:15:38;;;;;;;3.50;1.40;;;22.00;43.10;;;;;;5080187;28;20040;-69
2021/06/02 09:18:05;;;;;;;2.92;1.20;;;22.00;43.10;;;;;;5093295;28;20380;-68
2021/06/02 09:20:32;;;;;;;2.83;1.40;;;22.00;43.10;;;;;;5084273;28;20080;-69
2021/06/02 09:22:59;;;;;;;5.80;1.25;;;22.00;43.10;;;;;;5086321;28;20368;-69
2021/06/02 09:25:25;;;;;;;3.60;1.58;;;22.00;43.20;;;;;;5090319;28;20024;-70
2021/06/02 09:27:57;;;;;;;3.30;1.50;;;22.00;43.10;;;;;;5087490;28;20035;-69
2021/06/02 09:30:34;;;;;;;4.13;1.70;;;22.00;43.10;;;;;;5079549;28;20468;-69
2021/06/02 09:33:00;;;;;;;3.22;1.48;;;22.00;43.10;;;;;;5100543;28;20372;-68
2021/06/02 09:35:41;;;;;;;2.58;1.30;;;22.00;43.10;;;;;;5100253;28;20027;-69
2021/06/02 09:38:08;;;;;;;2.95;1.30;;;22.00;43.10;;;;;;5087603;28;20376;-69
2021/06/02 09:40:38;;;;;;;4.13;1.75;;;22.00;43.10;;;;;;5076111;28;20020;-71
2021/06/02 09:43:06;;;;;;;2.67;1.23;;;22.00;43.00;;;;;;5093071;28;20028;-70
2021/06/02 09:45:33;;;;;;;3.92;1.45;;;22.00;43.00;;;;;;5090338;28;20115;-69
2021/06/02 09:48:01;;;;;;;1.50;1.08;;;22.00;43.00;;;;;;5092948;28;20024;-69
2021/06/02 09:50:31;;;;;;;2.47;1.35;;;22.10;43.00;;;;;;5088841;28;20112;-69
2021/06/02 09:52:59;;;;;;;4.03;2.10;;;22.10;43.00;;;;;;5090046;28;20028;-69
2021/06/02 09:55:27;;;;;;;3.15;1.27;;;22.00;43.00;;;;;;5089395;28;20055;-69
2021/06/02 09:58:08;;;;;;;3.88;1.65;;;22.10;43.00;;;;;;5073816;28;20388;-69
2021/06/02 10:00:42;;;;;;;5.00;1.65;;;22.10;43.00;;;;;;5080281;28;20020;-71
2021/06/02 10:03:15;;;;;;;3.17;1.48;;;22.10;43.00;;;;;;5080852;28;20344;-69
2021/06/02 10:05:46;;;;;;;2.60;1.40;;;22.10;43.00;;;;;;5090333;28;20020;-71
2021/06/02 10:08:30;;;;;;;2.67;1.23;;;22.10;43.00;;;;;;5108215;28;20406;-70
2021/06/02 10:10:57;;;;;;;3.27;1.43;;;22.10;42.90;;;;;;5072621;28;20082;-70
2021/06/02 10:13:27;;;;;;;2.85;1.50;;;22.10;42.90;;;;;;5084936;28;20286;-69
2021/06/02 10:15:53;;;;;;;3.33;1.33;;;22.10;42.90;;;;;;5079242;28;20024;-68
2021/06/02 10:18:23;;;;;;;2.72;1.33;;;22.20;42.90;;;;;;5074234;28;20032;-69
2021/06/02 10:21:04;;;;;;;2.78;1.23;;;22.20;42.90;;;;;;5087188;28;20086;-69
2021/06/02 10:23:36;;;;;;;1.55;0.93;;;22.20;42.90;;;;;;5083805;28;20101;-69
2021/06/02 10:26:03;;;;;;;2.60;1.20;;;22.20;42.90;;;;;;5084563;28;20025;-69
2021/06/02 10:28:32;;;;;;;2.90;1.30;;;22.20;42.90;;;;;;5081897;28;20093;-69
2021/06/02 10:31:00;;;;;;;2.83;1.30;;;22.20;42.90;;;;;;5080051;28;20024;-68
2021/06/02 10:33:28;;;;;;;2.70;1.27;;;22.20;42.90;;;;;;5082742;28;20024;-68
2021/06/02 10:35:55;;;;;;;2.63;1.15;;;22.20;42.90;;;;;;5090046;28;20145;-68
2021/06/02 10:38:23;;;;;;;3.25;1.42;;;22.20;42.90;;;;;;5076078;28;20384;-68
2021/06/02 10:40:50;;;;;;;2.42;1.30;;;22.20;42.90;;;;;;5101147;28;20032;-68
2021/06/02 10:43:20;;;;;;;2.42;1.20;;;22.30;42.90;;;;;;5078767;28;20396;-68
2021/06/02 10:46:04;;;;;;;2.53;1.38;;;22.30;42.90;;;;;;5087988;28;20103;-68
2021/06/02 10:48:41;;;;;;;3.20;1.25;;;22.30;42.80;;;;;;5096569;28;20024;-69
2021/06/02 10:51:22;;;;;;;2.47;1.10;;;22.30;42.90;;;;;;5096031;28;20032;-69
2021/06/02 10:54:04;;;;;;;2.85;1.23;;;22.30;42.80;;;;;;5092278;28;20036;-69
2021/06/02 10:56:30;;;;;;;2.75;1.40;;;22.40;42.80;;;;;;5091067;28;20024;-69
2021/06/02 10:58:56;;;;;;;2.42;1.20;;;22.30;42.80;;;;;;5090022;28;20024;-69
2021/06/02 11:01:22;;;;;;;2.63;1.42;;;22.40;42.80;;;;;;5079274;28;20021;-70
2021/06/02 11:04:09;;;;;;;2.95;1.52;;;22.40;42.80;;;;;;5084953;28;20035;-69
2021/06/02 11:06:35;;;;;;;2.15;1.30;;;22.40;42.80;;;;;;5085726;28;20036;-70
2021/06/02 11:09:01;;;;;;;3.35;1.50;;;22.50;42.80;;;;;;5082046;28;20044;-69
2021/06/02 11:11:29;;;;;;;3.67;1.35;;;22.50;42.90;;;;;;5087566;28;20024;-69
2021/06/02 11:14:16;;;;;;;2.03;1.17;;;22.50;42.80;;;;;;5082229;28;20549;-70
2021/06/02 11:16:48;;;;;;;3.00;1.23;;;22.50;42.80;;;;;;5081126;28;20020;-68
2021/06/02 11:19:15;;;;;;;2.47;1.08;;;22.50;42.80;;;;;;5093245;28;20586;-70
2021/06/02 11:21:53;;;;;;;2.75;1.30;;;22.50;42.80;;;;;;5094237;28;20064;-70
2021/06/02 11:24:30;;;;;;;2.75;1.15;;;22.50;42.80;;;;;;5094571;28;20040;-69
2021/06/02 11:27:14;;;;;;;2.78;1.35;;;22.60;42.80;;;;;;5079907;28;20078;-69
2021/06/02 11:29:52;;;;;;;2.97;1.30;;;22.50;42.80;;;;;;5089062;28;20110;-70
2021/06/02 11:32:21;;;;;;;4.15;1.27;;;22.60;42.80;;;;;;5085235;28;20506;-69
2021/06/02 11:34:50;;;;;;;3.42;1.63;;;22.60;42.80;;;;;;5088198;28;20024;-70
2021/06/02 11:37:16;;;;;;;2.97;1.25;;;22.70;42.70;;;;;;5091725;28;20051;-68
2021/06/02 11:39:44;;;;;;;1.95;1.10;;;22.70;42.80;;;;;;5089283;28;20024;-69
2021/06/02 11:42:25;;;;;;;2.47;1.20;;;22.70;42.70;;;;;;5078998;28;20079;-69
2021/06/02 11:44:59;;;;;;;3.00;1.20;;;22.80;42.70;;;;;;5080289;28;20028;-68
2021/06/02 11:47:26;;;;;;;1.95;1.08;;;22.80;42.70;;;;;;5084139;28;20025;-70
2021/06/02 11:49:51;;;;;;;3.33;1.23;;;22.80;42.70;;;;;;5089753;28;20169;-70
2021/06/02 11:52:17;;;;;;;3.15;1.10;;;22.90;42.70;;;;;;5080080;28;20481;-70
2021/06/02 11:55:00;;;;;;;2.70;1.40;;;22.90;42.60;;;;;;5093054;28;20039;-69
2021/06/02 11:57:30;;;;;;;2.05;1.13;;;23.00;42.60;;;;;;5089533;28;20480;-69
2021/06/02 11:59:57;;;;;;;2.13;1.13;;;23.00;42.60;;;;;;5089757;28;20027;-68
2021/06/02 12:02:23;;;;;;;2.55;1.38;;;23.00;42.60;;;;;;5079994;28;20515;-69
2021/06/02 12:04:48;;;;;;;3.42;1.10;;;23.10;42.40;;;;;;5095418;28;20024;-69
2021/06/02 12:07:24;;;;;;;2.25;1.25;;;23.10;42.40;;;;;;5089694;28;20028;-69
2021/06/02 12:09:50;;;;;;;2.80;1.20;;;23.20;42.30;;;;;;5090973;28;20030;-67
2021/06/02 12:12:16;;;;;;;2.13;1.30;;;23.20;42.30;;;;;;5078868;28;20024;-69
2021/06/02 12:14:42;;;;;;;2.53;1.40;;;23.30;42.30;;;;;;5095220;28;20024;-69
2021/06/02 12:17:08;;;;;;;2.58;1.33;;;23.30;42.30;;;;;;5083998;28;20103;-69
2021/06/02 12:19:35;;;;;;;1.70;1.13;;;23.40;42.20;;;;;;5078776;28;20510;-69
2021/06/02 12:22:14;;;;;;;2.35;1.15;;;23.50;42.20;;;;;;5095548;28;20028;-69
2021/06/02 12:24:40;;;;;;;2.65;1.30;;;23.50;42.20;;;;;;5082479;28;20090;-70
2021/06/02 12:27:12;;;;;;;2.33;0.90;;;23.50;42.10;;;;;;5095022;28;20050;-69
2021/06/02 12:29:38;;;;;;;2.63;1.10;;;23.60;41.80;;;;;;5089648;28;20039;-70
2021/06/02 12:32:04;;;;;;;2.90;1.23;;;23.60;41.90;;;;;;5094160;28;20036;-70
2021/06/02 12:34:33;;;;;;;2.17;0.90;;;23.60;42.00;;;;;;5093414;28;20447;-70
2021/06/02 12:37:07;;;;;;;2.40;1.05;;;23.70;41.90;;;;;;5093586;28;20030;-69
2021/06/02 12:39:33;;;;;;;2.05;1.00;;;23.80;41.90;;;;;;5095242;28;20038;-69
2021/06/02 12:42:01;;;;;;;2.53;1.38;;;23.80;41.80;;;;;;5095721;28;20384;-69
2021/06/02 12:44:31;;;;;;;1.42;0.90;;;23.90;41.70;;;;;;5095029;28;20027;-69
2021/06/02 12:47:02;;;;;;;3.13;1.02;;;23.90;41.70;;;;;;5093687;28;20024;-69
2021/06/02 12:49:29;;;;;;;2.17;1.30;;;23.90;41.70;;;;;;5095022;28;20020;-69
2021/06/02 12:51:56;;;;;;;2.05;1.10;;;24.00;41.60;;;;;;5095167;28;20161;-69
2021/06/02 12:54:23;;;;;;;2.55;1.25;;;24.10;41.50;;;;;;5095031;28;20494;-69
2021/06/02 12:56:49;;;;;;;2.22;0.95;;;24.10;41.50;;;;;;5094970;28;20472;-69
2021/06/02 12:59:15;;;;;;;1.65;0.82;;;24.20;41.30;;;;;;5094892;28;20032;-70
2021/06/02 13:01:41;;;;;;;5.18;1.40;;;24.30;41.20;;;;;;5095399;28;20032;-69
2021/06/02 13:04:07;;;;;;;2.13;1.10;;;24.30;41.20;;;;;;5095519;28;20028;-68
2021/06/02 13:06:33;;;;;;;3.28;1.45;;;24.40;41.10;;;;;;5099743;28;20024;-69
2021/06/02 13:09:07;;;;;;;4.05;1.50;;;24.40;41.10;;;;;;5101811;28;20081;-69
2021/06/02 13:11:32;;;;;;;;;;;24.50;41.00;;;;;;5101608;28;20020;-70
2021/06/02 13:14:01;;;;;;;2.75;1.27;;;24.50;40.90;;;;;;5103376;28;19912;-70
2021/06/02 13:16:27;;;;;;;1.98;1.05;;;24.60;40.80;;;;;;5106111;28;20020;-69
2021/06/02 13:19:01;;;;;;;2.15;1.02;;;24.60;40.80;;;;;;5104135;28;20168;-68
2021/06/02 13:21:28;;;;;;;2.28;0.95;;;24.70;40.70;;;;;;5103218;28;20028;-69
2021/06/02 13:24:13;;;;;;;2.55;1.20;;;24.70;40.60;;;;;;5101483;28;20400;-68
2021/06/02 13:26:52;;;;;;;2.47;1.10;;;24.80;40.60;;;;;;5092603;28;20020;-69